createdAt,value
2022-08-17T00:01:21.019Z,15.69
2022-08-17T00:06:40.332Z,15.59
2022-08-17T00:12:34.776Z,15.6
2022-08-17T00:17:18.997Z,15.69
2022-08-17T00:22:38.205Z,15.65
2022-08-17T00:27:57.191Z,15.63
2022-08-17T00:33:17.006Z,15.58
2022-08-17T00:38:35.298Z,15.39
2022-08-17T00:43:54.266Z,15.34
2022-08-17T00:49:23.571Z,15.22
2022-08-17T00:54:32.795Z,15.05
2022-08-17T01:00:00.596Z,15.05
2022-08-17T01:05:11.212Z,14.92
2022-08-17T01:10:58.041Z,14.92
2022-08-17T01:16:00.507Z,14.87
2022-08-17T01:21:09.184Z,14.77
2022-08-17T01:26:28.742Z,14.81
2022-08-17T01:31:48.334Z,14.9
2022-08-17T01:37:07.287Z,14.81
2022-08-17T01:42:26.832Z,14.66
2022-08-17T01:47:46.292Z,14.66
2022-08-17T01:53:05.762Z,14.55
2022-08-17T01:58:25.353Z,14.41
2022-08-17T02:03:53.288Z,14.4
2022-08-17T02:09:03.911Z,14.41
2022-08-17T02:14:23.139Z,14.28
2022-08-17T02:19:42.506Z,14.16
2022-08-17T02:25:02.451Z,14.02
2022-08-17T02:30:50.051Z,13.94
2022-08-17T02:35:39.925Z,13.86
2022-08-17T02:40:58.721Z,13.82
2022-08-17T02:46:18.226Z,13.69
2022-08-17T02:55:54.251Z,13.62
2022-08-17T03:00:10.772Z,13.72
2022-08-17T03:08:43.852Z,13.64
2022-08-17T03:13:00.368Z,13.55
2022-08-17T03:18:18.853Z,13.44
2022-08-17T03:23:32.742Z,13.33
2022-08-17T03:28:52.026Z,13.24
2022-08-17T03:34:11.273Z,13.23
2022-08-17T03:39:42.971Z,13.21
2022-08-17T03:48:03.914Z,13.16
2022-08-17T03:55:41.317Z,13.2
2022-08-17T04:04:02.352Z,13.13
2022-08-17T04:16:45.803Z,12.99
2022-08-17T04:22:04.923Z,12.95
2022-08-17T04:27:23.936Z,12.97
2022-08-17T04:32:58.447Z,12.99
2022-08-17T04:38:02.451Z,13.02
2022-08-17T04:43:21.791Z,13.09
2022-08-17T04:48:41.364Z,13.2
2022-08-17T04:54:00.398Z,13.36
2022-08-17T04:59:19.614Z,13.41
2022-08-17T05:04:38.401Z,13.48
2022-08-17T05:09:57.183Z,13.5
2022-08-17T05:15:16.191Z,13.48
2022-08-17T05:20:35.122Z,13.51
2022-08-17T05:25:53.911Z,13.69
2022-08-17T05:34:26.969Z,14.15
2022-08-17T05:38:55.502Z,14.4
2022-08-17T05:43:00.026Z,14.88
2022-08-17T05:47:10.687Z,15.17
2022-08-17T05:55:43.782Z,15.62
2022-08-17T05:57:52.998Z,15.99
2022-08-17T06:03:19.451Z,16.49
2022-08-17T06:08:27.431Z,16.95
2022-08-17T06:13:46.662Z,17.41
2022-08-17T06:19:05.709Z,17.34
2022-08-17T06:27:38.776Z,17.62
2022-08-17T06:29:43.688Z,18.12
2022-08-17T06:35:02.726Z,18.79
2022-08-17T06:40:22.306Z,19.61
2022-08-17T06:45:41.909Z,20.1
2022-08-17T06:54:14.964Z,20.31
2022-08-17T06:56:19.653Z,20.86
2022-08-17T07:01:39.116Z,21.4
2022-08-17T07:06:58.685Z,21.56
2022-08-17T07:12:17.654Z,21.71
2022-08-17T07:17:47.117Z,22.01
2022-08-17T07:22:59.531Z,22.32
2022-08-17T07:28:14.632Z,22.62
2022-08-17T07:33:33.521Z,23.2
2022-08-17T07:38:52.693Z,23.79
2022-08-17T07:44:11.782Z,24.53
2022-08-17T07:49:31.674Z,25.29
2022-08-17T07:58:04.333Z,25.69
2022-08-17T08:00:10.719Z,26.14
2022-08-17T08:05:30.762Z,26.98
2022-08-17T08:10:47.221Z,27.47
2022-08-17T08:16:06.580Z,27.9
2022-08-17T08:21:26.039Z,28.38
2022-08-17T08:26:45.660Z,28.48
2022-08-17T08:32:05.184Z,27.85
2022-08-17T08:37:32.818Z,27.36
2022-08-17T08:42:42.952Z,27.22
2022-08-17T08:48:05.216Z,27.62
2022-08-17T08:53:20.857Z,28.06
2022-08-17T08:58:41.218Z,28.35
2022-08-17T09:04:12.007Z,28.49
2022-08-17T09:09:18.117Z,28.18
2022-08-17T09:14:43.103Z,27.85
2022-08-17T09:19:56.907Z,27.72
2022-08-17T09:25:16.459Z,27.81
2022-08-17T09:30:35.384Z,28.39
2022-08-17T09:35:54.193Z,28.83
2022-08-17T09:41:13.563Z,30.08
2022-08-17T09:46:32.694Z,31.26
2022-08-17T09:51:51.976Z,31.32
2022-08-17T09:57:28.961Z,30.71
2022-08-17T10:02:30.495Z,29.61
2022-08-17T10:11:03.601Z,28.93
2022-08-17T10:13:09.561Z,28.45
2022-08-17T10:23:46.201Z,28.16
2022-08-17T10:29:04.985Z,28.45
2022-08-17T10:34:24.441Z,28.6
2022-08-17T10:39:50.655Z,28.87
2022-08-17T10:45:15.221Z,29.28
2022-08-17T10:50:22.154Z,29.39
2022-08-17T10:55:41.274Z,29.21
2022-08-17T11:01:00.199Z,28.96
2022-08-17T11:06:18.868Z,29.07
2022-08-17T11:11:38.415Z,29.2
2022-08-17T11:16:57.782Z,29.42
2022-08-17T11:22:16.619Z,29.24
2022-08-17T11:27:35.690Z,29.07
2022-08-17T11:36:08.741Z,28.84
2022-08-17T11:38:16.162Z,28.76
2022-08-17T11:48:52.713Z,28.69
2022-08-17T11:54:31.488Z,28.33
2022-08-17T11:59:30.394Z,28.13
2022-08-17T12:04:49.730Z,27.91
2022-08-17T12:10:08.705Z,27.71
2022-08-17T12:15:28.000Z,27.14
2022-08-17T12:24:01.035Z,26.51
2022-08-17T12:26:05.694Z,26.1
2022-08-17T12:36:44.128Z,25.92
2022-08-17T12:45:17.195Z,25.67
2022-08-17T12:47:23.093Z,25.56
2022-08-17T12:52:41.347Z,25.38
2022-08-17T12:58:00.793Z,25.39
2022-08-17T13:03:19.842Z,25.42
2022-08-17T13:08:39.362Z,25.46
2022-08-17T13:13:58.252Z,25.52
2022-08-17T13:19:16.996Z,25.41
2022-08-17T13:24:38.422Z,25.73
2022-08-17T13:29:55.526Z,25.86
2022-08-17T13:35:18.241Z,25.96
2022-08-17T13:40:33.886Z,26.13
2022-08-17T13:45:52.982Z,26.49
2022-08-17T13:51:11.840Z,26.73
2022-08-17T13:56:33.600Z,26.69
2022-08-17T14:01:53.687Z,26.85
2022-08-17T14:07:09.893Z,26.89
2022-08-17T14:12:28.872Z,26.78
2022-08-17T14:17:48.522Z,26.86
2022-08-17T14:23:07.529Z,26.91
2022-08-17T14:28:26.780Z,26.91
2022-08-17T14:33:46.041Z,26.88
2022-08-17T14:39:05.561Z,27
2022-08-17T14:44:25.045Z,27.64
2022-08-17T14:49:43.760Z,28.45
2022-08-17T14:55:03.223Z,28.64
2022-08-17T15:00:22.530Z,28.49
2022-08-17T15:05:42.058Z,28.16
2022-08-17T15:11:00.749Z,27.9
2022-08-17T15:16:20.215Z,27.88
2022-08-17T15:21:39.377Z,27.82
2022-08-17T15:30:12.482Z,28.01
2022-08-17T15:32:18.229Z,28.06
2022-08-17T15:42:56.483Z,28
2022-08-17T15:48:15.363Z,27.95
2022-08-17T15:53:34.150Z,27.85
2022-08-17T15:58:53.366Z,27.87
2022-08-17T16:04:27.071Z,27.77
2022-08-17T16:04:40.808Z,27.88
2022-08-17T16:09:59.812Z,27.67
2022-08-17T16:18:32.904Z,27.7
2022-08-17T16:22:49.923Z,27.65
2022-08-17T16:31:22.505Z,27.98
2022-08-17T16:36:35.796Z,27.91
2022-08-17T16:45:08.837Z,27.81
2022-08-17T16:57:53.579Z,27.3
2022-08-17T17:06:26.628Z,27.04
2022-08-17T17:08:32.617Z,26.73
2022-08-17T17:13:51.624Z,26.53
2022-08-17T17:19:10.270Z,26.37
2022-08-17T17:24:29.972Z,26.21
2022-08-17T17:29:49.307Z,26.07
2022-08-17T17:35:07.648Z,25.9
2022-08-17T17:40:26.533Z,25.69
2022-08-17T17:45:45.823Z,25.47
2022-08-17T17:51:04.749Z,25.31
2022-08-17T17:56:43.619Z,25.19
2022-08-17T18:01:43.834Z,25.04
2022-08-17T18:07:03.167Z,24.94
2022-08-17T18:12:22.076Z,24.94
2022-08-17T18:17:40.738Z,24.83
2022-08-17T18:22:59.898Z,24.63
2022-08-17T18:28:18.849Z,24.33
2022-08-17T18:33:38.442Z,24.05
2022-08-17T18:42:11.500Z,23.82
2022-08-17T18:46:29.386Z,23.53
2022-08-17T18:49:35.984Z,23.27
2022-08-17T18:54:55.377Z,23.08
2022-08-17T19:00:14.110Z,22.84
2022-08-17T19:05:33.764Z,22.69
2022-08-17T19:10:53.165Z,22.44
2022-08-17T19:16:14.507Z,22.09
2022-08-17T19:21:31.267Z,21.81
2022-08-17T19:26:54.136Z,21.45
2022-08-17T19:32:09.532Z,21.3
2022-08-17T19:37:28.832Z,21.33
2022-08-17T19:42:47.891Z,21.37
2022-08-17T19:48:07.078Z,21.18
2022-08-17T19:53:33.162Z,20.91
2022-08-17T19:58:45.044Z,20.63
2022-08-17T20:04:04.702Z,20.41
2022-08-17T20:09:23.639Z,20.2
2022-08-17T20:14:53.352Z,20.06
2022-08-17T20:20:19.262Z,19.92
2022-08-17T20:25:23.149Z,19.87
2022-08-17T20:30:39.726Z,19.77
2022-08-17T20:39:12.787Z,19.7
2022-08-17T20:41:17.293Z,19.71
2022-08-17T20:46:36.993Z,19.58
2022-08-17T20:52:01.087Z,19.54
2022-08-17T20:57:15.362Z,19.45
2022-08-17T21:05:48.360Z,19.25
2022-08-17T21:07:54.151Z,19.03
2022-08-17T21:18:43.647Z,18.84
2022-08-17T21:23:51.998Z,18.81
2022-08-17T21:29:30.701Z,18.78
2022-08-17T21:34:31.001Z,18.81
2022-08-17T21:39:49.760Z,18.7
2022-08-17T21:45:09.269Z,18.53
2022-08-17T21:50:28.582Z,18.45
2022-08-17T21:55:47.716Z,18.45
2022-08-17T22:01:06.660Z,18.42
2022-08-17T22:06:25.512Z,18.25
2022-08-17T22:11:44.320Z,18.06
2022-08-17T22:17:03.136Z,17.99
2022-08-17T22:22:21.910Z,18.01
2022-08-17T22:27:40.677Z,18.08
2022-08-17T22:32:59.572Z,18.19
2022-08-17T22:38:18.464Z,18.29
2022-08-17T22:43:48.319Z,18.32
2022-08-17T22:48:56.303Z,18.39
2022-08-17T22:54:15.369Z,18.29
2022-08-17T22:59:34.456Z,18.29
2022-08-17T23:04:53.511Z,18.29
2022-08-17T23:10:12.842Z,18.25
2022-08-17T23:15:31.888Z,18.29
2022-08-17T23:20:51.186Z,18.35
2022-08-17T23:29:24.220Z,18.35
2022-08-17T23:36:48.548Z,18.21
2022-08-17T23:42:07.413Z,18.16
2022-08-17T23:47:26.797Z,18.1
2022-08-17T23:52:56.671Z,19.27
2022-08-17T23:58:04.584Z,20.96
